createdAt,value
2023-04-14T00:00:41.511Z,9.91
2023-04-14T00:03:08.549Z,9.91
2023-04-14T00:05:35.705Z,9.87
2023-04-14T00:08:02.462Z,9.86
2023-04-14T00:10:29.829Z,9.81
2023-04-14T00:12:56.610Z,9.47
2023-04-14T00:15:23.449Z,9.46
2023-04-14T00:17:50.339Z,9.42
2023-04-14T00:20:17.098Z,9.32
2023-04-14T00:22:43.817Z,9.37
2023-04-14T00:25:11.093Z,9.45
2023-04-14T00:27:37.877Z,9.47
2023-04-14T00:30:05.363Z,9.43
2023-04-14T00:32:34.666Z,9.41
2023-04-14T00:35:03.424Z,9.52
2023-04-14T00:37:30.866Z,9.59
2023-04-14T00:40:02.221Z,9.72
2023-04-14T00:42:29.056Z,9.73
2023-04-14T00:44:55.755Z,9.76
2023-04-14T00:47:23.123Z,9.72
2023-04-14T00:49:50.966Z,9.59
2023-04-14T00:52:18.956Z,9.52
2023-04-14T00:54:45.721Z,9.52
2023-04-14T00:57:12.485Z,9.53
2023-04-14T00:59:39.300Z,9.61
2023-04-14T01:02:06.177Z,9.59
2023-04-14T01:04:49.705Z,9.61
2023-04-14T01:07:21.623Z,9.62
2023-04-14T01:09:48.665Z,9.56
2023-04-14T01:12:21.273Z,9.54
2023-04-14T01:15:00.462Z,9.43
2023-04-14T01:17:39.699Z,9.18
2023-04-14T01:20:22.737Z,9.23
2023-04-14T01:23:12.404Z,9.01
2023-04-14T01:25:57.666Z,8.90
2023-04-14T01:28:46.167Z,8.93
2023-04-14T01:31:28.118Z,9.02
2023-04-14T01:34:14.377Z,9.05
2023-04-14T01:36:53.490Z,9.12
2023-04-14T01:39:24.828Z,9.19
2023-04-14T01:41:56.282Z,9.18
2023-04-14T01:44:25.379Z,9.17
2023-04-14T01:46:56.467Z,9.18
2023-04-14T01:49:24.806Z,9.17
2023-04-14T01:51:54.123Z,9.01
2023-04-14T01:54:22.599Z,8.88
2023-04-14T01:56:51.985Z,8.72
2023-04-14T01:59:20.828Z,8.57
2023-04-14T02:01:51.167Z,8.56
2023-04-14T02:04:22.937Z,8.44
2023-04-14T02:06:51.290Z,8.26
2023-04-14T02:09:20.196Z,8.27
2023-04-14T02:11:49.433Z,8.51
2023-04-14T02:14:17.959Z,8.52
2023-04-14T02:16:47.045Z,8.57
2023-04-14T02:19:18.604Z,8.66
2023-04-14T02:21:48.012Z,8.73
2023-04-14T02:24:14.966Z,8.71
2023-04-14T02:26:53.261Z,8.71
2023-04-14T02:29:22.837Z,8.57
2023-04-14T02:32:02.659Z,8.47
2023-04-14T02:34:33.847Z,8.30
2023-04-14T02:37:08.061Z,8.11
2023-04-14T02:39:41.938Z,8.15
2023-04-14T02:42:14.888Z,8.18
2023-04-14T02:44:50.054Z,8.16
2023-04-14T02:47:23.991Z,8.14
2023-04-14T02:49:53.766Z,8.19
2023-04-14T02:52:24.759Z,8.29
2023-04-14T02:54:55.425Z,8.32
2023-04-14T02:57:26.331Z,8.27
2023-04-14T02:59:55.422Z,8.13
2023-04-14T03:02:22.863Z,8.18
2023-04-14T03:04:59.788Z,8.05
2023-04-14T03:07:47.484Z,7.99
2023-04-14T03:10:16.810Z,7.98
2023-04-14T03:12:46.784Z,7.93
2023-04-14T03:15:15.993Z,8.04
2023-04-14T03:17:48.084Z,8.01
2023-04-14T03:20:20.096Z,7.95
2023-04-14T03:22:57.261Z,7.88
2023-04-14T03:25:27.810Z,7.76
2023-04-14T03:27:59.971Z,7.63
2023-04-14T03:30:38.415Z,7.62
2023-04-14T03:33:11.809Z,7.69
2023-04-14T03:35:39.699Z,7.60
2023-04-14T03:38:09.756Z,7.77
2023-04-14T03:40:42.220Z,7.75
2023-04-14T03:43:13.268Z,7.65
2023-04-14T03:45:43.232Z,7.58
2023-04-14T03:48:14.503Z,7.55
2023-04-14T03:50:49.529Z,7.54
2023-04-14T03:53:18.810Z,7.58
2023-04-14T03:55:47.906Z,7.56
2023-04-14T03:58:17.258Z,7.67
2023-04-14T04:00:46.668Z,7.72
2023-04-14T04:03:15.673Z,7.66
2023-04-14T04:05:43.965Z,7.65
2023-04-14T04:08:12.660Z,7.56
2023-04-14T04:10:40.328Z,7.35
2023-04-14T04:13:11.355Z,7.13
2023-04-14T04:15:43.378Z,7.14
2023-04-14T04:18:15.308Z,7.28
2023-04-14T04:20:42.810Z,7.29
2023-04-14T04:23:11.526Z,7.36
2023-04-14T04:25:40.588Z,7.42
2023-04-14T04:28:22.223Z,7.47
2023-04-14T04:30:50.423Z,7.47
2023-04-14T04:33:17.983Z,7.45
2023-04-14T04:35:46.712Z,7.53
2023-04-14T04:38:13.467Z,7.60
2023-04-14T04:40:44.163Z,7.60
2023-04-14T04:43:19.121Z,7.39
2023-04-14T04:46:11.511Z,7.09
2023-04-14T04:48:38.585Z,6.97
2023-04-14T04:51:06.094Z,6.89
2023-04-14T04:53:33.113Z,6.90
2023-04-14T04:56:02.935Z,6.87
2023-04-14T04:58:29.742Z,6.82
2023-04-14T05:00:56.507Z,6.95
2023-04-14T05:03:23.358Z,7.04
2023-04-14T05:05:50.481Z,7.21
2023-04-14T05:08:17.280Z,7.42
2023-04-14T05:10:44.331Z,7.58
2023-04-14T05:13:11.411Z,7.70
2023-04-14T05:15:38.238Z,7.90
2023-04-14T05:18:05.142Z,8.06
2023-04-14T05:20:34.931Z,8.28
2023-04-14T05:23:01.879Z,8.49
2023-04-14T05:25:28.514Z,8.66
2023-04-14T05:27:55.426Z,8.82
2023-04-14T05:30:22.158Z,9.18
2023-04-14T05:32:48.897Z,9.33
2023-04-14T05:35:16.104Z,9.38
2023-04-14T05:37:42.879Z,9.65
2023-04-14T05:40:10.315Z,9.95
2023-04-14T05:42:37.120Z,10.29
2023-04-14T05:45:04.242Z,10.52
2023-04-14T05:47:31.008Z,10.79
2023-04-14T05:49:58.429Z,11.23
2023-04-14T05:52:25.691Z,11.73
2023-04-14T05:54:55.124Z,12.03
2023-04-14T05:57:21.851Z,12.38
2023-04-14T05:59:48.653Z,12.73
2023-04-14T06:02:15.472Z,12.84
2023-04-14T06:04:42.364Z,13.40
2023-04-14T06:07:09.144Z,13.68
2023-04-14T06:09:35.779Z,14.13
2023-04-14T06:12:02.465Z,14.82
2023-04-14T06:14:29.262Z,15.22
2023-04-14T06:16:56.131Z,15.60
2023-04-14T06:19:22.964Z,16.10
2023-04-14T06:21:49.819Z,16.55
2023-04-14T06:24:16.616Z,16.85
2023-04-14T06:26:43.356Z,17.70
2023-04-14T06:29:10.312Z,18.32
2023-04-14T06:31:37.015Z,19.09
2023-04-14T06:34:03.818Z,19.38
2023-04-14T06:36:34.160Z,19.34
2023-04-14T06:39:01.458Z,20.02
2023-04-14T06:41:28.451Z,20.94
2023-04-14T06:43:57.389Z,21.80
2023-04-14T06:46:24.196Z,21.81
2023-04-14T06:48:54.083Z,22.19
2023-04-14T06:51:23.688Z,22.44
2023-04-14T06:53:50.368Z,23.16
2023-04-14T06:56:17.125Z,22.06
2023-04-14T06:58:49.708Z,22.83
2023-04-14T07:01:16.644Z,23.30
2023-04-14T07:03:43.982Z,23.56
2023-04-14T07:06:14.055Z,24.07
2023-04-14T07:08:40.852Z,24.50
2023-04-14T07:11:10.248Z,23.68
2023-04-14T07:13:37.983Z,23.37
2023-04-14T07:16:08.660Z,23.61
2023-04-14T07:18:35.675Z,24.43
2023-04-14T07:21:02.868Z,24.28
2023-04-14T07:23:29.742Z,23.40
2023-04-14T07:26:00.623Z,23.33
2023-04-14T07:28:28.141Z,23.30
2023-04-14T07:30:55.046Z,22.75
2023-04-14T07:33:25.306Z,22.72
2023-04-14T07:36:02.181Z,22.42
2023-04-14T07:38:29.882Z,23.84
2023-04-14T07:40:56.727Z,24.32
2023-04-14T07:43:23.964Z,25.83
2023-04-14T07:45:52.139Z,27.12
2023-04-14T07:48:22.003Z,28.16
2023-04-14T07:50:50.927Z,28.83
2023-04-14T07:53:17.712Z,28.52
2023-04-14T07:55:44.440Z,28.54
2023-04-14T07:58:15.351Z,29.36
2023-04-14T08:00:43.115Z,29.92
2023-04-14T08:03:10.158Z,27.83
2023-04-14T08:05:37.766Z,28.31
2023-04-14T08:08:04.908Z,26.55
2023-04-14T08:10:31.961Z,25.93
2023-04-14T08:12:59.380Z,28.08
2023-04-14T08:15:27.383Z,29.32
2023-04-14T08:17:54.101Z,28.88
2023-04-14T08:20:20.842Z,30.08
2023-04-14T08:22:47.524Z,30.24
2023-04-14T08:25:14.706Z,29.78
2023-04-14T08:27:41.445Z,28.51
2023-04-14T08:30:10.211Z,26.19
2023-04-14T08:32:38.096Z,28.13
2023-04-14T08:35:35.404Z,29.61
2023-04-14T08:37:52.143Z,32.15
2023-04-14T08:40:21.396Z,31.77
2023-04-14T08:42:48.249Z,31.75
2023-04-14T08:45:15.583Z,31.70
2023-04-14T08:47:45.910Z,32.26
2023-04-14T08:50:18.160Z,32.75
2023-04-14T08:52:47.154Z,34.81
2023-04-14T08:55:15.669Z,34.63
2023-04-14T08:57:44.056Z,34.99
2023-04-14T09:00:11.319Z,35.49
2023-04-14T09:02:40.685Z,32.87
2023-04-14T09:05:08.891Z,33.13
2023-04-14T09:07:36.544Z,34.82
2023-04-14T09:10:04.233Z,34.61
2023-04-14T09:12:31.175Z,35.46
2023-04-14T09:14:59.058Z,35.63
2023-04-14T09:17:26.956Z,36.52
2023-04-14T09:20:38.749Z,35.92
2023-04-14T09:22:43.082Z,34.38
2023-04-14T09:25:10.741Z,35.04
2023-04-14T09:27:38.161Z,31.91
2023-04-14T09:30:05.778Z,32.33
2023-04-14T09:32:32.591Z,30.98
2023-04-14T09:34:59.335Z,28.92
2023-04-14T09:37:26.147Z,29.56
2023-04-14T09:39:56.942Z,31.50
2023-04-14T09:42:39.429Z,32.25
2023-04-14T09:45:06.884Z,35.72
2023-04-14T09:47:33.723Z,36.41
2023-04-14T09:50:03.382Z,35.80
2023-04-14T09:52:37.272Z,35.55
2023-04-14T09:55:12.296Z,33.77
2023-04-14T09:57:44.210Z,32.06
2023-04-14T10:00:17.935Z,29.36
2023-04-14T10:02:49.435Z,31.72
2023-04-14T10:05:19.537Z,32.99
2023-04-14T10:07:46.524Z,30.71
2023-04-14T10:10:13.831Z,30.14
2023-04-14T10:12:46.959Z,31.74
2023-04-14T10:15:15.532Z,30.94
2023-04-14T10:17:45.350Z,30.20
2023-04-14T10:20:12.979Z,26.82
2023-04-14T10:22:41.880Z,28.50
2023-04-14T10:25:10.100Z,28.44
2023-04-14T10:27:38.276Z,27.38
2023-04-14T10:30:06.410Z,24.68
2023-04-14T10:32:36.737Z,24.10
2023-04-14T10:35:09.100Z,22.33
2023-04-14T10:37:36.718Z,22.55
2023-04-14T10:40:06.910Z,22.59
2023-04-14T10:42:53.410Z,22.57
2023-04-14T10:45:20.658Z,23.73
2023-04-14T10:47:48.131Z,25.26
2023-04-14T10:50:22.110Z,25.42
2023-04-14T10:52:55.717Z,25.51
2023-04-14T10:55:27.889Z,26.07
2023-04-14T10:58:06.190Z,24.72
2023-04-14T11:00:37.874Z,25.35
2023-04-14T11:03:11.144Z,26.22
2023-04-14T11:05:51.949Z,25.78
2023-04-14T11:08:29.767Z,26.71
2023-04-14T11:11:07.068Z,27.21
2023-04-14T11:13:35.116Z,24.92
2023-04-14T11:16:03.945Z,25.34
2023-04-14T11:18:30.942Z,27.42
2023-04-14T11:21:18.320Z,27.75
2023-04-14T11:23:45.126Z,27.14
2023-04-14T11:26:13.471Z,26.10
2023-04-14T11:28:44.735Z,24.83
2023-04-14T11:31:13.187Z,25.79
2023-04-14T11:33:41.595Z,27.92
2023-04-14T11:36:09.989Z,25.80
2023-04-14T11:38:43.260Z,25.22
2023-04-14T11:41:10.480Z,24.91
2023-04-14T11:43:38.308Z,24.84
2023-04-14T11:46:05.934Z,27.37
2023-04-14T11:48:32.928Z,29.62
2023-04-14T11:51:03.991Z,28.41
2023-04-14T11:53:32.067Z,28.44
2023-04-14T11:56:00.441Z,27.88
2023-04-14T11:58:27.677Z,28.38
2023-04-14T12:00:57.396Z,29.12
2023-04-14T12:03:29.368Z,29.35
2023-04-14T12:06:01.572Z,30.69
2023-04-14T12:08:33.035Z,32.36
2023-04-14T12:11:13.774Z,32.01
2023-04-14T12:13:41.826Z,31.95
2023-04-14T12:16:09.296Z,31.87
2023-04-14T12:18:36.140Z,29.76
2023-04-14T12:21:06.355Z,29.26
2023-04-14T12:23:37.087Z,28.39
2023-04-14T12:26:08.926Z,28.35
2023-04-14T12:28:37.088Z,25.26
2023-04-14T12:31:04.197Z,23.36
2023-04-14T12:33:32.183Z,22.55
2023-04-14T12:36:03.111Z,22.65
2023-04-14T12:38:29.981Z,22.76
2023-04-14T12:40:57.045Z,23.43
2023-04-14T12:43:31.618Z,24.42
2023-04-14T12:45:58.799Z,24.77
2023-04-14T12:48:46.781Z,24.88
2023-04-14T12:51:19.239Z,24.89
2023-04-14T12:53:49.300Z,24.85
2023-04-14T12:56:19.553Z,23.91
2023-04-14T12:58:47.203Z,23.89
2023-04-14T13:01:18.669Z,24.37
2023-04-14T13:03:51.535Z,24.88
2023-04-14T13:06:20.929Z,25.13
2023-04-14T13:08:52.144Z,25.16
2023-04-14T13:11:20.780Z,24.80
2023-04-14T13:13:49.308Z,24.02
2023-04-14T13:16:18.774Z,23.65
2023-04-14T13:18:47.779Z,23.04
2023-04-14T13:21:15.235Z,23.99
2023-04-14T13:23:42.002Z,23.75
2023-04-14T13:26:12.030Z,23.96
2023-04-14T13:28:38.769Z,23.94
2023-04-14T13:31:07.566Z,22.91
2023-04-14T13:33:34.387Z,22.62
2023-04-14T13:36:05.112Z,22.85
2023-04-14T13:38:33.424Z,22.96
2023-04-14T13:41:00.351Z,23.52
2023-04-14T13:43:30.565Z,23.71
2023-04-14T13:45:58.563Z,22.82
2023-04-14T13:48:26.284Z,22.56
2023-04-14T13:50:55.826Z,22.80
2023-04-14T13:53:22.729Z,23.07
2023-04-14T13:55:49.535Z,23.36
2023-04-14T13:58:16.307Z,23.11
2023-04-14T14:00:43.094Z,23.32
2023-04-14T14:03:09.903Z,23.26
2023-04-14T14:05:36.715Z,23.60
2023-04-14T14:08:03.549Z,23.54
2023-04-14T14:10:30.614Z,22.96
2023-04-14T14:12:57.293Z,22.58
2023-04-14T14:15:24.017Z,22.34
2023-04-14T14:17:54.767Z,21.95
2023-04-14T14:20:21.535Z,22.50
2023-04-14T14:22:48.486Z,22.76
2023-04-14T14:25:19.655Z,22.86
2023-04-14T14:27:48.452Z,22.55
2023-04-14T14:30:15.809Z,22.51
2023-04-14T14:32:43.842Z,22.82
2023-04-14T14:35:10.665Z,22.36
2023-04-14T14:37:38.806Z,22.33
2023-04-14T14:40:06.476Z,22.46
2023-04-14T14:42:33.184Z,22.55
2023-04-14T14:45:01.378Z,22.91
2023-04-14T14:47:28.459Z,22.37
2023-04-14T14:50:00.741Z,22.37
2023-04-14T14:52:33.275Z,22.36
2023-04-14T14:55:00.324Z,22.13
2023-04-14T14:57:27.122Z,21.75
2023-04-14T14:59:54.003Z,22.10
2023-04-14T15:02:21.474Z,22.16
2023-04-14T15:04:48.858Z,22.79
2023-04-14T15:07:15.659Z,23.19
2023-04-14T15:09:42.776Z,23.32
2023-04-14T15:12:09.579Z,23.56
2023-04-14T15:14:36.299Z,23.26
2023-04-14T15:17:03.130Z,23.97
2023-04-14T15:19:29.850Z,24.06
2023-04-14T15:21:56.581Z,23.48
2023-04-14T15:24:23.225Z,23.40
2023-04-14T15:26:49.961Z,22.87
2023-04-14T15:29:16.716Z,22.85
2023-04-14T15:31:43.454Z,22.31
2023-04-14T15:34:10.308Z,22.37
2023-04-14T15:36:37.213Z,22.21
2023-04-14T15:39:07.073Z,22.95
2023-04-14T15:41:35.903Z,23.23
2023-04-14T15:44:05.864Z,23.09
2023-04-14T15:46:32.759Z,23.66
2023-04-14T15:48:59.683Z,23.40
2023-04-14T15:51:29.399Z,23.04
2023-04-14T15:53:56.156Z,22.60
2023-04-14T15:56:23.460Z,22.73
2023-04-14T15:58:50.578Z,22.34
2023-04-14T16:01:17.402Z,21.80
2023-04-14T16:03:44.263Z,22.36
2023-04-14T16:06:11.496Z,22.24
2023-04-14T16:08:38.337Z,22.30
2023-04-14T16:11:05.299Z,22.34
2023-04-14T16:13:32.058Z,21.88
2023-04-14T16:15:58.781Z,21.54
2023-04-14T16:18:27.685Z,21.39
2023-04-14T16:20:54.350Z,21.08
2023-04-14T16:23:21.907Z,20.88
2023-04-14T16:25:49.637Z,20.87
2023-04-14T16:28:16.564Z,20.74
2023-04-14T16:30:43.321Z,20.39
2023-04-14T16:33:10.126Z,20.31
2023-04-14T16:35:36.971Z,20.31
2023-04-14T16:38:08.073Z,20.20
2023-04-14T16:40:35.837Z,20.11
2023-04-14T16:43:03.107Z,20.14
2023-04-14T16:45:34.541Z,20.14
2023-04-14T16:48:01.328Z,20.31
2023-04-14T16:50:28.159Z,20.30
2023-04-14T16:52:54.875Z,20.17
2023-04-14T16:55:21.555Z,20.22
2023-04-14T16:57:48.252Z,20.14
2023-04-14T17:00:15.348Z,20.09
2023-04-14T17:02:42.349Z,20.29
2023-04-14T17:05:10.541Z,20.16
2023-04-14T17:07:37.412Z,19.93
2023-04-14T17:10:04.463Z,20.11
2023-04-14T17:12:31.213Z,20.19
2023-04-14T17:15:00.178Z,20.15
2023-04-14T17:17:27.249Z,20.15
2023-04-14T17:19:55.185Z,20.13
2023-04-14T17:22:23.238Z,19.91
2023-04-14T17:24:50.724Z,19.83
2023-04-14T17:27:17.560Z,19.83
2023-04-14T17:29:44.438Z,19.83
2023-04-14T17:32:11.457Z,19.70
2023-04-14T17:34:38.306Z,19.66
2023-04-14T17:37:05.110Z,19.58
2023-04-14T17:39:31.864Z,19.58
2023-04-14T17:41:58.629Z,19.52
2023-04-14T17:44:33.640Z,19.40
2023-04-14T17:47:01.659Z,19.37
2023-04-14T17:49:29.013Z,19.35
2023-04-14T17:51:57.009Z,19.24
2023-04-14T17:54:23.826Z,19.20
2023-04-14T17:56:50.504Z,19.19
2023-04-14T17:59:17.660Z,19.15
2023-04-14T18:01:44.496Z,18.99
2023-04-14T18:04:11.618Z,18.87
2023-04-14T18:06:38.381Z,18.72
2023-04-14T18:09:05.099Z,18.60
2023-04-14T18:11:31.911Z,18.43
2023-04-14T18:13:58.827Z,18.27
2023-04-14T18:16:26.313Z,18.22
2023-04-14T18:18:54.303Z,18.09
2023-04-14T18:21:21.772Z,17.92
2023-04-14T18:24:47.825Z,17.85
2023-04-14T18:26:35.418Z,17.77
2023-04-14T18:29:02.641Z,17.80
2023-04-14T18:31:29.778Z,17.78
2023-04-14T18:34:06.068Z,17.77
2023-04-14T18:36:33.430Z,17.76
2023-04-14T18:39:00.745Z,17.67
2023-04-14T18:41:28.037Z,17.63
2023-04-14T18:43:54.750Z,17.58
2023-04-14T18:46:21.819Z,17.51
2023-04-14T18:48:49.268Z,17.53
2023-04-14T18:51:16.635Z,17.47
2023-04-14T18:53:45.209Z,17.23
2023-04-14T18:56:13.390Z,17.03
2023-04-14T18:58:40.475Z,17.01
2023-04-14T19:01:08.298Z,16.99
2023-04-14T19:03:35.415Z,17.05
2023-04-14T19:06:02.290Z,17.08
2023-04-14T19:08:29.041Z,17.25
2023-04-14T19:10:57.389Z,17.19
2023-04-14T19:13:24.395Z,17.07
2023-04-14T19:15:51.187Z,16.96
2023-04-14T19:18:17.977Z,16.94
2023-04-14T19:20:47.433Z,16.93
2023-04-14T19:23:14.267Z,16.95
2023-04-14T19:25:41.691Z,16.99
2023-04-14T19:28:16.257Z,16.86
2023-04-14T19:30:44.285Z,16.76
2023-04-14T19:33:11.830Z,16.72
2023-04-14T19:35:39.018Z,16.58
2023-04-14T19:38:05.819Z,16.44
2023-04-14T19:40:32.766Z,16.30
2023-04-14T19:42:59.548Z,16.01
2023-04-14T19:45:26.432Z,15.97
2023-04-14T19:47:54.142Z,16.03
2023-04-14T19:50:22.673Z,16.08
2023-04-14T19:52:51.380Z,16.15
2023-04-14T19:55:18.823Z,16.15
2023-04-14T19:57:45.741Z,16.11
2023-04-14T20:00:12.991Z,16.11
2023-04-14T20:02:40.617Z,15.97
2023-04-14T20:05:07.703Z,15.96
2023-04-14T20:07:34.452Z,15.95
2023-04-14T20:10:01.635Z,16.00
2023-04-14T20:12:31.389Z,16.02
2023-04-14T20:14:58.227Z,15.96
2023-04-14T20:17:27.140Z,15.98
2023-04-14T20:19:53.992Z,15.96
2023-04-14T20:22:20.776Z,15.93
2023-04-14T20:24:47.568Z,16.01
2023-04-14T20:27:14.366Z,15.84
2023-04-14T20:29:41.116Z,15.85
2023-04-14T20:32:11.494Z,15.88
2023-04-14T20:34:38.243Z,15.87
2023-04-14T20:37:05.862Z,15.93
2023-04-14T20:39:33.226Z,15.76
2023-04-14T20:42:00.711Z,15.76
2023-04-14T20:44:27.749Z,15.70
2023-04-14T20:46:54.428Z,15.68
2023-04-14T20:49:21.611Z,15.69
2023-04-14T20:51:48.916Z,15.61
2023-04-14T20:54:15.701Z,15.65
2023-04-14T20:56:42.566Z,15.57
2023-04-14T20:59:10.241Z,15.52
2023-04-14T21:01:37.509Z,15.50
2023-04-14T21:04:04.331Z,15.48
2023-04-14T21:06:32.978Z,15.41
2023-04-14T21:08:59.980Z,15.33
2023-04-14T21:11:27.320Z,15.27
2023-04-14T21:15:29.552Z,15.11
2023-04-14T21:16:41.652Z,15.00
2023-04-14T21:19:08.433Z,14.89
2023-04-14T21:21:35.081Z,14.86
2023-04-14T21:24:02.463Z,14.86
2023-04-14T21:26:29.371Z,14.92
2023-04-14T21:28:56.541Z,14.97
2023-04-14T21:31:23.308Z,15.02
2023-04-14T21:33:50.362Z,15.05
2023-04-14T21:36:17.148Z,14.94
2023-04-14T21:38:44.061Z,14.97
2023-04-14T21:41:11.205Z,14.92
2023-04-14T21:43:40.892Z,14.83
2023-04-14T21:46:08.112Z,14.71
2023-04-14T21:48:34.866Z,14.66
2023-04-14T21:51:02.360Z,14.62
2023-04-14T21:53:29.624Z,14.55
2023-04-14T21:56:10.307Z,14.53
2023-04-14T21:58:39.178Z,14.47
2023-04-14T22:01:07.046Z,14.50
2023-04-14T22:03:33.912Z,14.50
2023-04-14T22:06:01.159Z,14.49
2023-04-14T22:08:27.844Z,14.50
2023-04-14T22:10:57.712Z,14.46
2023-04-14T22:13:24.700Z,14.47
2023-04-14T22:15:51.583Z,14.48
2023-04-14T22:18:19.053Z,14.45
2023-04-14T22:20:45.850Z,14.34
2023-04-14T22:23:13.271Z,14.33
2023-04-14T22:25:40.562Z,14.29
2023-04-14T22:28:07.442Z,14.15
2023-04-14T22:30:34.344Z,13.99
2023-04-14T22:33:01.159Z,13.96
2023-04-14T22:35:28.067Z,13.93
2023-04-14T22:37:54.769Z,13.84
2023-04-14T22:40:22.023Z,13.97
2023-04-14T22:42:48.802Z,14.06
2023-04-14T22:45:15.603Z,13.97
2023-04-14T22:47:42.381Z,13.92
2023-04-14T22:50:09.467Z,13.92
2023-04-14T22:52:36.335Z,13.93
2023-04-14T22:55:03.210Z,13.99
2023-04-14T22:57:29.975Z,13.96
2023-04-14T22:59:56.675Z,14.02
2023-04-14T23:02:23.520Z,14.09
2023-04-14T23:04:52.736Z,14.07
2023-04-14T23:07:19.768Z,14.00
2023-04-14T23:09:46.474Z,13.99
2023-04-14T23:12:13.133Z,13.97
2023-04-14T23:14:39.786Z,14.06
2023-04-14T23:17:09.415Z,14.04
2023-04-14T23:19:36.563Z,14.00
2023-04-14T23:22:04.367Z,14.09
2023-04-14T23:24:31.466Z,14.19
2023-04-14T23:26:58.214Z,14.32
2023-04-14T23:29:24.893Z,14.37
2023-04-14T23:31:51.807Z,14.41
2023-04-14T23:34:18.587Z,14.47
2023-04-14T23:36:48.336Z,14.43
2023-04-14T23:39:15.142Z,14.42
2023-04-14T23:41:41.851Z,14.40
2023-04-14T23:44:08.602Z,14.15
2023-04-14T23:46:35.787Z,13.99
2023-04-14T23:49:03.002Z,13.90
2023-04-14T23:51:49.139Z,13.68
2023-04-14T23:54:15.827Z,13.63
2023-04-14T23:56:42.499Z,13.52
2023-04-14T23:59:09.738Z,13.49
